CheckWX is a tool to help pilots better visualize weather data.  It is not intended as a substitute for an official pre-flight weather briefing.

07:23:35 UTC

KRHI METAR
Rhinelander-Oneida County Airport
Rhinelander, Wisconsin, USA
Current

14 mins ago

KRHI 260710Z AUTO 04006KT 10SM BKN021 M08/M12 A3022 RMK AO2 T10781117
Observed
Feb-26 @ 07:10 UTC
Wind
  • 040° at 6 KTS
Visibility
10 SM
Flight Rules
MVFR
Cloud Levels
  • Broken at 2,100' AGL
Temperature
-8°C / 18°F
Dewpoint
-12°C / 10°F
Humidity
73%
Altimeter
30.22" Hg
Pressure
1023.42 hPa
Previous

31 mins ago

KRHI 260653Z AUTO 04006KT 10SM CLR M08/M12 A3022 RMK AO2 SLP261 T10781117
Observed
Feb-26 @ 06:53 UTC
Wind
  • 040° at 6 KTS
Visibility
10 SM
Flight Rules
VFR
Cloud Levels
  • Clear skies
Temperature
-8°C / 18°F
Dewpoint
-12°C / 10°F
Humidity
73%
Altimeter
30.22" Hg
Pressure
1023.42 hPa
Previous

45 mins ago

KRHI 260639Z AUTO 04006KT 10SM SCT022 M08/M12 A3022 RMK AO2 T10781117
Observed
Feb-26 @ 06:39 UTC
Wind
  • 040° at 6 KTS
Visibility
10 SM
Flight Rules
VFR
Cloud Levels
  • Scattered at 2,200' AGL
Temperature
-8°C / 18°F
Dewpoint
-12°C / 10°F
Humidity
73%
Altimeter
30.22" Hg
Pressure
1023.42 hPa